createdAt,value
2022-08-11T00:01:07.606Z,26.53
2022-08-11T00:03:43.440Z,26.62
2022-08-11T00:06:14.056Z,26.59
2022-08-11T00:08:42.409Z,26.58
2022-08-11T00:11:10.181Z,26.48
2022-08-11T00:13:46.904Z,26.44
2022-08-11T00:16:20.719Z,26.49
2022-08-11T00:18:53.558Z,26.48
2022-08-11T00:21:32.503Z,26.45
2022-08-11T00:24:09.064Z,26.38
2022-08-11T00:26:36.821Z,26.48
2022-08-11T00:29:12.965Z,26.44
2022-08-11T00:31:46.137Z,26.40
2022-08-11T00:34:12.548Z,26.40
2022-08-11T00:36:50.803Z,26.43
2022-08-11T00:39:20.487Z,26.43
2022-08-11T00:42:10.807Z,26.40
2022-08-11T00:45:17.688Z,26.47
2022-08-11T00:48:04.090Z,26.43
2022-08-11T00:50:42.733Z,26.38
2022-08-11T00:53:31.509Z,26.35
2022-08-11T00:56:23.609Z,26.40
2022-08-11T00:59:34.365Z,26.35
2022-08-11T01:01:57.658Z,26.35
2022-08-11T01:04:46.230Z,26.29
2022-08-11T01:08:03.008Z,26.30
2022-08-11T01:10:41.973Z,26.32
2022-08-11T01:13:15.599Z,26.30
2022-08-11T01:16:11.684Z,26.34
2022-08-11T01:18:53.578Z,26.30
2022-08-11T01:21:58.030Z,26.30
2022-08-11T01:24:45.508Z,26.32
2022-08-11T01:27:33.499Z,26.25
2022-08-11T01:30:40.749Z,26.21
2022-08-11T01:33:38.545Z,26.20
2022-08-11T01:36:35.698Z,26.24
2022-08-11T01:39:26.992Z,26.16
2022-08-11T01:42:41.708Z,26.14
2022-08-11T01:45:24.049Z,26.13
2022-08-11T01:48:03.084Z,26.07
2022-08-11T01:50:55.255Z,26.15
2022-08-11T01:53:40.153Z,26.08
2022-08-11T01:56:37.443Z,26.12
2022-08-11T01:59:10.189Z,26.06
2022-08-11T02:01:37.326Z,26.03
2022-08-11T02:04:33.797Z,26.06
2022-08-11T02:07:21.744Z,26.07
2022-08-11T02:10:25.746Z,26.13
2022-08-11T02:13:42.448Z,26.06
2022-08-11T02:16:27.186Z,26.06
2022-08-11T02:19:35.440Z,26.01
2022-08-11T02:22:25.220Z,26.05
2022-08-11T02:25:02.270Z,26.02
2022-08-11T02:28:03.585Z,26.01
2022-08-11T02:30:35.207Z,25.97
2022-08-11T02:33:23.192Z,25.97
2022-08-11T02:36:06.687Z,25.99
2022-08-11T02:38:33.035Z,25.99
2022-08-11T02:41:37.897Z,25.99
2022-08-11T02:44:26.846Z,25.98
2022-08-11T02:47:24.993Z,25.99
2022-08-11T02:50:07.501Z,25.97
2022-08-11T02:52:45.469Z,25.96
2022-08-11T02:55:57.597Z,25.93
2022-08-11T02:58:30.633Z,25.96
2022-08-11T03:01:06.686Z,25.93
2022-08-11T03:04:11.166Z,25.96
2022-08-11T03:06:46.723Z,25.86
2022-08-11T03:09:36.024Z,25.85
2022-08-11T03:12:28.281Z,25.84
2022-08-11T03:15:18.352Z,25.85
2022-08-11T03:18:12.177Z,25.90
2022-08-11T03:21:09.404Z,25.87
2022-08-11T03:24:03.802Z,25.86
2022-08-11T03:26:43.404Z,25.83
2022-08-11T03:29:25.158Z,25.77
2022-08-11T03:32:14.888Z,25.80
2022-08-11T03:34:44.187Z,25.73
2022-08-11T03:37:51.806Z,25.84
2022-08-11T03:40:38.267Z,25.74
2022-08-11T03:43:11.372Z,25.69
2022-08-11T03:45:56.393Z,25.74
2022-08-11T03:48:50.017Z,25.72
2022-08-11T03:51:30.604Z,25.70
2022-08-11T03:54:20.414Z,25.69
2022-08-11T03:56:52.965Z,25.66
2022-08-11T03:59:59.660Z,25.71
2022-08-11T04:02:53.448Z,25.73
2022-08-11T04:05:31.760Z,25.69
2022-08-11T04:08:04.128Z,25.75
2022-08-11T04:10:59.688Z,25.68
2022-08-11T04:14:29.562Z,25.64
2022-08-11T04:17:35.650Z,25.65
2022-08-11T04:20:20.947Z,25.65
2022-08-11T04:22:55.209Z,25.59
2022-08-11T04:25:31.013Z,25.63
2022-08-11T04:28:00.546Z,25.67
2022-08-11T04:30:52.877Z,25.66
2022-08-11T04:33:41.797Z,25.68
2022-08-11T04:36:09.679Z,25.65
2022-08-11T04:39:05.870Z,25.56
2022-08-11T04:42:12.557Z,25.61
2022-08-11T04:44:42.198Z,25.57
2022-08-11T04:47:11.615Z,25.64
2022-08-11T04:50:02.883Z,25.57
2022-08-11T04:53:01.683Z,25.58
2022-08-11T04:56:05.817Z,25.64
2022-08-11T04:59:06.254Z,25.63
2022-08-11T05:01:43.319Z,25.54
2022-08-11T05:04:32.451Z,25.53
2022-08-11T05:07:34.458Z,25.51
2022-08-11T05:10:30.177Z,25.60
2022-08-11T05:13:21.440Z,25.59
2022-08-11T05:16:22.832Z,25.60
2022-08-11T05:19:10.904Z,25.54
2022-08-11T05:21:58.667Z,25.50
2022-08-11T05:24:49.398Z,25.49
2022-08-11T05:27:34.988Z,25.47
2022-08-11T05:30:24.014Z,25.48
2022-08-11T05:33:23.523Z,25.50
2022-08-11T05:36:02.294Z,25.46
2022-08-11T05:38:51.458Z,25.44
2022-08-11T05:41:42.193Z,25.46
2022-08-11T05:44:28.826Z,25.48
2022-08-11T05:47:14.081Z,25.49
2022-08-11T05:49:59.629Z,25.43
2022-08-11T05:52:49.283Z,25.43
2022-08-11T05:55:58.367Z,25.44
2022-08-11T05:58:43.238Z,25.46
2022-08-11T06:01:12.427Z,25.39
2022-08-11T06:04:05.528Z,25.39
2022-08-11T06:06:32.401Z,25.47
2022-08-11T06:08:59.365Z,25.46
2022-08-11T06:11:42.926Z,25.42
2022-08-11T06:14:11.694Z,25.46
2022-08-11T06:16:38.448Z,25.46
2022-08-11T06:19:05.994Z,25.51
2022-08-11T06:21:36.251Z,25.51
2022-08-11T06:24:12.356Z,25.50
2022-08-11T06:27:08.754Z,25.55
2022-08-11T06:29:38.275Z,25.54
2022-08-11T06:32:15.579Z,25.55
2022-08-11T06:35:07.851Z,25.57
2022-08-11T06:37:43.526Z,25.55
2022-08-11T06:40:28.044Z,25.59
2022-08-11T06:43:12.218Z,25.59
2022-08-11T06:45:53.658Z,25.66
2022-08-11T06:48:23.094Z,25.68
2022-08-11T06:51:13.703Z,25.66
2022-08-11T06:54:03.548Z,25.73
2022-08-11T06:57:28.394Z,25.80
2022-08-11T07:00:01.445Z,25.79
2022-08-11T07:02:54.052Z,25.83
2022-08-11T07:05:31.319Z,25.82
2022-08-11T07:08:44.497Z,25.81
2022-08-11T07:11:57.692Z,25.82
2022-08-11T07:14:45.687Z,25.80
2022-08-11T07:17:17.432Z,25.82
2022-08-11T07:20:16.143Z,25.82
2022-08-11T07:23:11.756Z,25.84
2022-08-11T07:25:58.843Z,25.87
2022-08-11T07:28:45.464Z,25.93
2022-08-11T07:31:14.997Z,25.93
2022-08-11T07:34:07.268Z,25.98
2022-08-11T07:36:35.190Z,25.95
2022-08-11T07:39:02.613Z,25.96
2022-08-11T07:41:32.803Z,25.99
2022-08-11T07:44:09.162Z,26.05
2022-08-11T07:47:14.392Z,26.09
2022-08-11T07:50:03.148Z,26.07
2022-08-11T07:52:34.106Z,26.13
2022-08-11T07:55:05.864Z,26.12
2022-08-11T07:58:16.395Z,26.11
2022-08-11T08:01:03.890Z,26.11
2022-08-11T08:03:57.015Z,26.12
2022-08-11T08:06:42.541Z,26.11
2022-08-11T08:09:28.323Z,26.11
2022-08-11T08:12:14.575Z,26.12
2022-08-11T08:15:01.134Z,26.11
2022-08-11T08:18:20.400Z,26.11
2022-08-11T08:20:37.519Z,26.16
2022-08-11T08:23:04.957Z,26.13
2022-08-11T08:25:33.960Z,26.15
2022-08-11T08:28:02.766Z,26.16
2022-08-11T08:30:48.136Z,26.18
2022-08-11T08:33:21.380Z,26.25
2022-08-11T08:35:55.890Z,26.29
2022-08-11T08:38:23.231Z,26.24
2022-08-11T08:40:54.760Z,26.30
2022-08-11T08:43:23.917Z,26.32
2022-08-11T08:45:55.451Z,26.33
2022-08-11T08:48:24.039Z,26.29
2022-08-11T08:51:12.702Z,26.35
2022-08-11T08:53:52.238Z,26.36
2022-08-11T08:56:28.167Z,26.41
2022-08-11T08:58:56.483Z,26.47
2022-08-11T09:01:25.363Z,26.45
2022-08-11T09:04:04.650Z,26.43
2022-08-11T09:06:50.034Z,26.44
2022-08-11T09:09:20.732Z,26.51
2022-08-11T09:11:51.332Z,26.54
2022-08-11T09:14:19.405Z,26.52
2022-08-11T09:16:47.091Z,26.53
2022-08-11T09:19:17.523Z,26.52
2022-08-11T09:22:07.475Z,26.60
2022-08-11T09:24:54.610Z,26.62
2022-08-11T09:27:22.456Z,26.64
2022-08-11T09:29:49.415Z,26.67
2022-08-11T09:32:20.148Z,26.66
2022-08-11T09:34:47.188Z,26.67
2022-08-11T09:37:54.687Z,26.73
2022-08-11T09:40:32.379Z,26.75
2022-08-11T09:43:20.286Z,26.76
2022-08-11T09:45:51.579Z,26.82
2022-08-11T09:48:23.765Z,26.85
2022-08-11T09:50:52.432Z,26.93
2022-08-11T09:53:36.855Z,26.93
2022-08-11T09:56:36.615Z,27.01
2022-08-11T09:59:04.577Z,27.01
2022-08-11T10:01:34.110Z,27.04
2022-08-11T10:04:04.506Z,27.09
2022-08-11T10:06:54.333Z,27.15
2022-08-11T10:09:24.203Z,27.15
2022-08-11T10:11:57.870Z,27.19
2022-08-11T10:14:46.373Z,27.18
2022-08-11T10:17:15.210Z,27.23
2022-08-11T10:19:42.576Z,27.23
2022-08-11T10:22:27.960Z,27.26
2022-08-11T10:25:15.216Z,27.25
2022-08-11T10:28:28.237Z,27.30
2022-08-11T10:30:54.338Z,27.30
2022-08-11T10:33:41.749Z,27.33
2022-08-11T10:36:24.726Z,27.34
2022-08-11T10:38:52.410Z,27.35
2022-08-11T10:41:38.025Z,27.39
2022-08-11T10:44:24.666Z,27.39
2022-08-11T10:47:10.771Z,27.44
2022-08-11T10:49:37.740Z,27.47
2022-08-11T10:52:23.032Z,27.46
2022-08-11T10:55:08.679Z,27.47
2022-08-11T10:58:04.987Z,27.50
2022-08-11T11:00:32.784Z,27.53
2022-08-11T11:03:22.171Z,27.61
2022-08-11T11:06:27.401Z,27.62
2022-08-11T11:08:57.746Z,27.60
2022-08-11T11:11:48.203Z,27.66
2022-08-11T11:14:46.085Z,27.71
2022-08-11T11:17:34.351Z,27.74
2022-08-11T11:20:03.309Z,27.74
2022-08-11T11:22:40.436Z,27.77
2022-08-11T11:25:20.855Z,27.80
2022-08-11T11:28:12.127Z,27.84
2022-08-11T11:30:51.506Z,27.87
2022-08-11T11:34:12.141Z,27.91
2022-08-11T11:36:48.588Z,27.98
2022-08-11T11:39:19.335Z,28.00
2022-08-11T11:41:46.174Z,28.00
2022-08-11T11:44:13.661Z,28.04
2022-08-11T11:46:40.832Z,28.08
2022-08-11T11:49:15.312Z,28.12
2022-08-11T11:51:43.779Z,28.16
2022-08-11T11:54:14.671Z,28.17
2022-08-11T11:56:42.043Z,28.24
2022-08-11T11:59:27.612Z,28.27
2022-08-11T12:01:55.101Z,28.33
2022-08-11T12:04:22.311Z,28.33
2022-08-11T12:06:49.291Z,28.38
2022-08-11T12:09:18.409Z,28.37
2022-08-11T12:12:04.164Z,28.41
2022-08-11T12:14:31.000Z,28.40
2022-08-11T12:16:57.771Z,28.48
2022-08-11T12:19:26.179Z,28.47
2022-08-11T12:22:14.289Z,28.48
2022-08-11T12:24:59.809Z,28.54
2022-08-11T12:27:27.625Z,28.52
2022-08-11T12:30:03.756Z,28.54
2022-08-11T12:32:32.306Z,28.58
2022-08-11T12:34:59.109Z,28.57
2022-08-11T12:37:30.582Z,28.58
2022-08-11T12:40:42.956Z,28.61
2022-08-11T12:43:37.344Z,28.63
2022-08-11T12:46:16.346Z,28.73
2022-08-11T12:49:07.096Z,28.74
2022-08-11T12:52:11.127Z,28.70
2022-08-11T12:54:42.477Z,28.75
2022-08-11T12:58:01.470Z,28.81
2022-08-11T13:00:46.990Z,28.81
2022-08-11T13:03:32.595Z,28.86
2022-08-11T13:06:02.640Z,28.82
2022-08-11T13:08:33.516Z,28.89
2022-08-11T13:11:19.663Z,28.98
2022-08-11T13:13:53.809Z,28.98
2022-08-11T13:16:25.674Z,28.88
2022-08-11T13:18:53.472Z,28.97
2022-08-11T13:21:21.487Z,28.94
2022-08-11T13:24:00.609Z,29.05
2022-08-11T13:26:47.353Z,28.99
2022-08-11T13:29:24.756Z,29.04
2022-08-11T13:31:53.191Z,29.05
2022-08-11T13:34:20.898Z,29.03
2022-08-11T13:36:52.073Z,29.09
2022-08-11T13:39:20.331Z,29.09
2022-08-11T13:41:48.562Z,29.10
2022-08-11T13:44:21.636Z,29.16
2022-08-11T13:46:53.153Z,29.08
2022-08-11T13:49:21.029Z,29.13
2022-08-11T13:51:48.326Z,29.15
2022-08-11T13:54:20.690Z,29.17
2022-08-11T13:56:49.261Z,29.15
2022-08-11T13:59:20.334Z,29.20
2022-08-11T14:02:20.288Z,29.16
2022-08-11T14:04:52.391Z,29.21
2022-08-11T14:07:24.793Z,29.12
2022-08-11T14:09:56.906Z,29.21
2022-08-11T14:12:45.027Z,29.21
2022-08-11T14:15:25.111Z,29.26
2022-08-11T14:18:01.701Z,29.17
2022-08-11T14:20:50.014Z,29.20
2022-08-11T14:23:16.886Z,29.13
2022-08-11T14:26:03.709Z,29.17
2022-08-11T14:28:37.480Z,29.20
2022-08-11T14:31:08.476Z,29.16
2022-08-11T14:33:53.521Z,29.12
2022-08-11T14:36:24.248Z,29.16
2022-08-11T14:38:51.045Z,29.17
2022-08-11T14:41:36.952Z,29.14
2022-08-11T14:44:22.505Z,29.14
2022-08-11T14:47:05.694Z,29.21
2022-08-11T14:50:09.594Z,29.14
2022-08-11T14:52:50.498Z,29.20
2022-08-11T14:55:37.180Z,29.14
2022-08-11T14:58:04.310Z,29.16
2022-08-11T15:00:32.021Z,29.13
2022-08-11T15:03:11.726Z,29.13
2022-08-11T15:05:41.281Z,29.19
2022-08-11T15:08:09.726Z,29.17
2022-08-11T15:10:36.704Z,29.23
2022-08-11T15:13:04.751Z,29.19
2022-08-11T15:15:50.400Z,29.14
2022-08-11T15:18:20.000Z,29.15
2022-08-11T15:21:05.716Z,29.15
2022-08-11T15:23:50.675Z,29.21
2022-08-11T15:26:19.816Z,29.16
2022-08-11T15:29:07.058Z,29.16
2022-08-11T15:31:53.125Z,29.21
2022-08-11T15:34:40.943Z,29.22
2022-08-11T15:37:26.612Z,29.12
2022-08-11T15:40:32.853Z,29.22
2022-08-11T15:43:28.417Z,29.21
2022-08-11T15:46:02.166Z,29.16
2022-08-11T15:48:31.648Z,29.18
2022-08-11T15:51:09.194Z,29.22
2022-08-11T15:53:43.300Z,29.21
2022-08-11T15:56:11.338Z,29.24
2022-08-11T15:59:33.742Z,29.20
2022-08-11T16:02:12.616Z,29.29
2022-08-11T16:04:44.892Z,29.31
2022-08-11T16:07:14.900Z,29.34
2022-08-11T16:09:55.010Z,29.34
2022-08-11T16:12:29.024Z,29.37
2022-08-11T16:15:20.216Z,29.31
2022-08-11T16:17:50.337Z,29.32
2022-08-11T16:20:22.883Z,29.36
2022-08-11T16:23:02.084Z,29.35
2022-08-11T16:27:03.579Z,29.33
2022-08-11T16:28:20.792Z,29.33
2022-08-11T16:30:48.365Z,29.28
2022-08-11T16:33:49.058Z,29.30
2022-08-11T16:36:22.457Z,29.32
2022-08-11T16:38:49.610Z,29.28
2022-08-11T16:41:37.697Z,29.34
2022-08-11T16:44:36.915Z,29.35
2022-08-11T16:47:06.510Z,29.38
2022-08-11T16:49:40.069Z,29.45
2022-08-11T16:52:11.012Z,29.50
2022-08-11T16:54:39.889Z,29.49
2022-08-11T16:57:34.261Z,29.47
2022-08-11T17:00:07.343Z,29.36
2022-08-11T17:02:54.308Z,29.46
2022-08-11T17:05:54.146Z,29.34
2022-08-11T17:08:56.955Z,29.45
2022-08-11T17:11:46.539Z,29.39
2022-08-11T17:14:16.804Z,29.40
2022-08-11T17:16:45.510Z,29.39
2022-08-11T17:19:14.575Z,29.44
2022-08-11T17:22:02.230Z,29.35
2022-08-11T17:24:31.601Z,29.46
2022-08-11T17:26:59.801Z,29.45
2022-08-11T17:29:54.026Z,29.39
2022-08-11T17:32:56.206Z,29.45
2022-08-11T17:35:35.407Z,29.42
2022-08-11T17:38:21.912Z,29.33
2022-08-11T17:41:18.674Z,29.17
2022-08-11T17:44:09.294Z,29.32
2022-08-11T17:46:54.487Z,29.27
2022-08-11T17:49:21.466Z,29.28
2022-08-11T17:52:08.569Z,29.23
2022-08-11T17:54:55.476Z,29.21
2022-08-11T17:57:47.036Z,29.18
2022-08-11T18:00:14.689Z,29.12
2022-08-11T18:03:02.074Z,29.07
2022-08-11T18:05:31.226Z,29.12
2022-08-11T18:08:18.133Z,29.22
2022-08-11T18:11:04.212Z,29.14
2022-08-11T18:13:51.905Z,29.14
2022-08-11T18:16:38.218Z,29.15
2022-08-11T18:19:24.792Z,29.11
2022-08-11T18:22:14.833Z,29.12
2022-08-11T18:25:07.324Z,29.09
2022-08-11T18:27:53.531Z,29.16
2022-08-11T18:30:38.702Z,29.15
2022-08-11T18:33:50.433Z,29.08
2022-08-11T18:36:33.060Z,29.07
2022-08-11T18:39:18.858Z,29.12
2022-08-11T18:42:04.867Z,29.12
2022-08-11T18:44:51.473Z,29.11
2022-08-11T18:47:39.153Z,29.07
2022-08-11T18:50:34.072Z,29.07
2022-08-11T18:53:25.537Z,29.02
2022-08-11T18:56:12.166Z,29.04
2022-08-11T18:59:00.284Z,29.02
2022-08-11T19:01:46.272Z,29.01
2022-08-11T19:04:32.044Z,29.05
2022-08-11T19:07:24.721Z,29.09
2022-08-11T19:10:10.373Z,29.03
2022-08-11T19:12:59.987Z,29.06
2022-08-11T19:15:45.620Z,29.02
2022-08-11T19:18:40.402Z,29.04
2022-08-11T19:21:26.630Z,29.02
2022-08-11T19:24:15.158Z,29.07
2022-08-11T19:27:00.783Z,29.02
2022-08-11T19:30:06.943Z,29.01
2022-08-11T19:32:52.275Z,28.98
2022-08-11T19:35:37.845Z,29.04
2022-08-11T19:38:22.940Z,28.94
2022-08-11T19:41:09.065Z,29.06
2022-08-11T19:43:55.741Z,28.93
2022-08-11T19:46:41.827Z,28.88
2022-08-11T19:49:28.423Z,29.00
2022-08-11T19:52:15.156Z,28.90
2022-08-11T19:55:00.852Z,28.93
2022-08-11T19:57:46.455Z,28.84
2022-08-11T20:00:35.186Z,28.85
2022-08-11T20:03:23.012Z,28.81
2022-08-11T20:06:08.549Z,28.91
2022-08-11T20:08:58.654Z,28.85
2022-08-11T20:11:45.351Z,28.92
2022-08-11T20:14:31.399Z,28.91
2022-08-11T20:17:17.627Z,28.88
2022-08-11T20:20:02.816Z,28.88
2022-08-11T20:22:49.461Z,28.90
2022-08-11T20:25:35.927Z,28.84
2022-08-11T20:28:23.153Z,28.85
2022-08-11T20:31:08.681Z,28.83
2022-08-11T20:33:54.739Z,28.78
2022-08-11T20:36:39.894Z,28.73
2022-08-11T20:39:25.537Z,28.76
2022-08-11T20:42:11.857Z,28.69
2022-08-11T20:44:58.017Z,28.73
2022-08-11T20:47:59.821Z,28.75
2022-08-11T20:50:46.554Z,28.72
2022-08-11T20:53:35.862Z,28.66
2022-08-11T20:56:28.524Z,28.65
2022-08-11T20:59:21.879Z,28.49
2022-08-11T21:02:09.761Z,28.46
2022-08-11T21:04:57.066Z,28.43
2022-08-11T21:07:44.744Z,28.56
2022-08-11T21:10:44.678Z,28.55
2022-08-11T21:13:32.432Z,28.50
2022-08-11T21:16:25.926Z,28.51
2022-08-11T21:19:16.093Z,28.45
2022-08-11T21:22:03.607Z,28.41
2022-08-11T21:24:50.893Z,28.46
2022-08-11T21:27:37.507Z,28.45
2022-08-11T21:30:23.265Z,28.39
2022-08-11T21:33:09.306Z,28.30
2022-08-11T21:35:54.486Z,28.32
2022-08-11T21:38:39.557Z,28.39
2022-08-11T21:41:25.644Z,28.30
2022-08-11T21:44:10.742Z,28.21
2022-08-11T21:46:57.224Z,28.34
2022-08-11T21:49:43.829Z,28.28
2022-08-11T21:52:29.148Z,28.22
2022-08-11T21:55:14.703Z,28.23
2022-08-11T21:58:00.112Z,28.23
2022-08-11T22:00:45.161Z,28.17
2022-08-11T22:03:30.395Z,28.20
2022-08-11T22:06:21.764Z,28.18
2022-08-11T22:09:06.854Z,28.20
2022-08-11T22:12:33.544Z,28.14
2022-08-11T22:14:57.720Z,28.15
2022-08-11T22:17:42.906Z,28.05
2022-08-11T22:20:30.417Z,28.00
2022-08-11T22:23:17.140Z,27.95
2022-08-11T22:26:07.318Z,28.04
2022-08-11T22:28:56.714Z,27.93
2022-08-11T22:31:42.265Z,27.88
2022-08-11T22:34:27.910Z,27.89
2022-08-11T22:37:27.195Z,27.87
2022-08-11T22:40:13.150Z,27.84
2022-08-11T22:42:58.114Z,27.81
2022-08-11T22:45:43.445Z,27.84
2022-08-11T22:48:29.733Z,27.81
2022-08-11T22:51:16.283Z,27.79
2022-08-11T22:54:01.835Z,27.79
2022-08-11T22:56:49.050Z,27.82
2022-08-11T22:59:38.700Z,27.85
2022-08-11T23:02:25.232Z,27.81
2022-08-11T23:05:10.950Z,27.73
2022-08-11T23:07:56.617Z,27.73
2022-08-11T23:10:42.768Z,27.83
2022-08-11T23:13:28.458Z,27.76
2022-08-11T23:16:14.681Z,27.69
2022-08-11T23:19:00.057Z,27.73
2022-08-11T23:21:46.422Z,27.74
2022-08-11T23:24:31.871Z,27.76
2022-08-11T23:27:18.537Z,27.70
2022-08-11T23:30:03.588Z,27.67
2022-08-11T23:32:49.793Z,27.64
2022-08-11T23:35:40.193Z,27.66
2022-08-11T23:38:37.896Z,27.65
2022-08-11T23:41:22.992Z,27.64
2022-08-11T23:44:08.473Z,27.65
2022-08-11T23:46:54.140Z,27.60
2022-08-11T23:49:39.377Z,27.63
2022-08-11T23:52:24.894Z,27.65
2022-08-11T23:55:10.500Z,27.56
2022-08-11T23:57:55.735Z,27.54
